Ana Sayfa
METAR-TAF:

METAR-TAF

Havaalanları :

Ermelo, Güney Afrika

Enlem: 26-29-44S, Boylam: 29-58-47E, yükseklik: 1737 m

Güncel hava durumu gözlemi

Rapor saat 06:22 UTC de 1 saat ve 6 dakika önce yapıldı.
Rüzgar kuzeydan 10 kt
Sıcaklık 15°C
Nem 72%
Basınç 1028 hPa

METAR: FAEO 150622Z AUTO 36010KT //// // ////// 15/10 Q1028

Saat: 09:28 (07:28 UTC)


TAF: eksik

4.000'den fazla havaalanı için hava durumu gözlemleri ve tahminleri (METAR ve TAF raporları).

Kullanılabilir istasyonlar harita üzerinde sarı ve kırmızı noktalarla gösterilir.

İstasyonun adını görmek için fareyi noktanın üzerinde gezdirin.

Sonrasında hava gözlem ve tahminlerini görmek için tıklayın.

Haritayı değiştirmek için: yaklaştırmak için siyah artı işaretli yeşil düğmeye ve uzaklaştırmak için de eksi işaretli düğmeye hızla tıklayın; bitişik haritalar için yeşil okları kullanın.


METAR-TAF: